createdAt,value
2018-02-14T00:00:34.245Z,-3.40
2018-02-14T00:03:01.707Z,-3.30
2018-02-14T00:05:29.179Z,-3.30
2018-02-14T00:07:56.630Z,-3.40
2018-02-14T00:10:24.870Z,-3.50
2018-02-14T00:12:52.338Z,-3.30
2018-02-14T00:15:19.802Z,-3.60
2018-02-14T00:17:47.271Z,-3.60
2018-02-14T00:20:14.746Z,-3.70
2018-02-14T00:22:42.206Z,-3.60
2018-02-14T00:25:09.674Z,-3.70
2018-02-14T00:27:37.139Z,-3.70
2018-02-14T00:30:04.611Z,-3.70
2018-02-14T00:32:32.083Z,-3.80
2018-02-14T00:34:59.559Z,-3.70
2018-02-14T00:37:27.034Z,-3.80
2018-02-14T00:39:55.278Z,-3.90
2018-02-14T00:42:22.738Z,-3.90
2018-02-14T00:44:50.262Z,-4.00
2018-02-14T00:47:17.723Z,-4.00
2018-02-14T00:49:45.199Z,-3.80
2018-02-14T00:52:12.675Z,-4.00
2018-02-14T00:54:40.138Z,-4.10
2018-02-14T00:57:07.596Z,-4.10
2018-02-14T00:59:35.053Z,-4.10
2018-02-14T01:02:03.303Z,-4.10
2018-02-14T01:04:30.770Z,-4.10
2018-02-14T01:06:58.242Z,-4.20
2018-02-14T01:09:25.710Z,-4.20
2018-02-14T01:11:53.958Z,-4.30
2018-02-14T01:14:21.442Z,-4.30
2018-02-14T01:16:49.674Z,-4.40
2018-02-14T01:19:17.130Z,-4.30
2018-02-14T01:21:50.422Z,-4.40
2018-02-14T01:24:17.888Z,-4.40
2018-02-14T01:26:45.357Z,-4.40
2018-02-14T01:29:12.829Z,-4.40
2018-02-14T01:31:41.082Z,-4.30
2018-02-14T01:34:08.542Z,-4.30
2018-02-14T01:36:36.003Z,-4.30
2018-02-14T01:39:04.229Z,-4.40
2018-02-14T01:41:31.717Z,-4.40
2018-02-14T01:43:59.179Z,-4.40
2018-02-14T01:46:26.646Z,-4.50
2018-02-14T01:48:54.105Z,-4.50
2018-02-14T01:51:21.562Z,-4.50
2018-02-14T01:53:49.791Z,-4.60
2018-02-14T01:56:17.258Z,-4.60
2018-02-14T01:58:44.725Z,-4.60
2018-02-14T02:01:12.197Z,-4.70
2018-02-14T02:03:39.674Z,-4.70
2018-02-14T02:06:07.902Z,-4.70
2018-02-14T02:08:35.347Z,-4.70
2018-02-14T02:11:02.808Z,-4.70
2018-02-14T02:13:30.277Z,-4.70
2018-02-14T02:15:57.712Z,-4.70
2018-02-14T02:18:25.167Z,-4.70
2018-02-14T02:20:52.634Z,-4.70
2018-02-14T02:23:20.111Z,-4.60
2018-02-14T02:25:47.571Z,-4.60
2018-02-14T02:28:15.039Z,-4.60
2018-02-14T02:30:43.270Z,-4.80
2018-02-14T02:33:10.922Z,-4.80
2018-02-14T02:35:38.380Z,-4.90
2018-02-14T02:38:05.870Z,-4.90
2018-02-14T02:40:33.343Z,-4.90
2018-02-14T02:43:00.817Z,-5.00
2018-02-14T02:45:29.046Z,-4.90
2018-02-14T02:47:56.515Z,-4.90
2018-02-14T02:50:23.971Z,-4.90
2018-02-14T02:52:51.451Z,-5.00
2018-02-14T02:55:19.694Z,-5.00
2018-02-14T02:57:47.172Z,-5.00
2018-02-14T03:00:14.639Z,-5.00
2018-02-14T03:02:42.866Z,-5.00
2018-02-14T03:05:10.336Z,-5.00
2018-02-14T03:07:37.790Z,-5.00
2018-02-14T03:10:05.267Z,-5.10
2018-02-14T03:12:32.719Z,-5.10
2018-02-14T03:15:00.187Z,-5.20
2018-02-14T03:17:28.414Z,-5.20
2018-02-14T03:19:55.880Z,-5.20
2018-02-14T03:22:23.342Z,-5.10
2018-02-14T03:24:50.814Z,-5.10
2018-02-14T03:27:18.275Z,-5.10
2018-02-14T03:29:45.731Z,-5.10
2018-02-14T03:32:13.187Z,-5.10
2018-02-14T03:34:40.642Z,-5.20
2018-02-14T03:37:08.101Z,-5.20
2018-02-14T03:39:35.578Z,-5.20
2018-02-14T03:42:03.795Z,-5.30
2018-02-14T03:44:31.258Z,-5.30
2018-02-14T03:46:58.725Z,-5.20
2018-02-14T03:49:26.198Z,-5.30
2018-02-14T03:51:53.663Z,-5.30
2018-02-14T03:54:21.888Z,-5.30
2018-02-14T03:56:49.350Z,-5.30
2018-02-14T03:59:16.821Z,-5.30
2018-02-14T04:01:44.282Z,-5.30
2018-02-14T04:04:11.739Z,-5.30
2018-02-14T04:06:39.208Z,-5.40
2018-02-14T04:09:06.675Z,-5.40
2018-02-14T04:11:34.140Z,-5.40
2018-02-14T04:14:02.379Z,-5.40
2018-02-14T04:16:29.835Z,-5.40
2018-02-14T04:18:57.302Z,-5.40
2018-02-14T04:21:24.767Z,-5.50
2018-02-14T04:23:52.222Z,-5.50
2018-02-14T04:26:19.695Z,-5.50
2018-02-14T04:28:47.926Z,-5.50
2018-02-14T04:31:15.377Z,-5.50
2018-02-14T04:33:42.839Z,-5.50
2018-02-14T04:36:10.292Z,-5.60
2018-02-14T04:38:37.758Z,-5.60
2018-02-14T04:41:05.206Z,-5.60
2018-02-14T04:43:32.657Z,-5.60
2018-02-14T04:46:00.130Z,-5.70
2018-02-14T04:48:27.586Z,-5.60
2018-02-14T04:50:55.044Z,-5.60
2018-02-14T04:53:22.499Z,-5.50
2018-02-14T04:55:49.964Z,-5.60
2018-02-14T04:58:17.413Z,-5.60
2018-02-14T05:00:44.878Z,-5.60
2018-02-14T05:03:12.376Z,-5.60
2018-02-14T05:05:39.800Z,-5.60
2018-02-14T05:08:07.248Z,-5.60
2018-02-14T05:10:34.706Z,-5.60
2018-02-14T05:13:02.159Z,-5.70
2018-02-14T05:15:29.615Z,-5.60
2018-02-14T05:17:57.074Z,-5.70
2018-02-14T05:20:24.528Z,-5.80
2018-02-14T05:22:51.989Z,-5.80
2018-02-14T05:25:19.439Z,-5.90
2018-02-14T05:27:46.895Z,-5.90
2018-02-14T05:30:14.354Z,-5.90
2018-02-14T05:32:41.814Z,-5.90
2018-02-14T05:35:09.269Z,-5.80
2018-02-14T05:37:36.738Z,-5.80
2018-02-14T05:40:04.178Z,-5.80
2018-02-14T05:42:31.638Z,-5.90
2018-02-14T05:44:59.099Z,-5.90
2018-02-14T05:47:26.555Z,-5.80
2018-02-14T05:49:54.011Z,-5.90
2018-02-14T05:52:21.485Z,-5.90
2018-02-14T05:54:49.711Z,-5.80
2018-02-14T05:57:17.178Z,-5.80
2018-02-14T05:59:44.632Z,-5.80
2018-02-14T06:02:12.098Z,-5.70
2018-02-14T06:04:39.555Z,-5.60
2018-02-14T06:07:07.014Z,-5.60
2018-02-14T06:09:34.469Z,-5.60
2018-02-14T06:12:02.139Z,-5.70
2018-02-14T06:14:29.606Z,-5.70
2018-02-14T06:16:57.821Z,-5.70
2018-02-14T06:19:25.281Z,-5.70
2018-02-14T06:21:52.764Z,-5.70
2018-02-14T06:24:20.194Z,-5.70
2018-02-14T06:26:47.651Z,-5.80
2018-02-14T06:29:15.110Z,-5.80
2018-02-14T06:31:42.563Z,-5.80
2018-02-14T06:34:10.018Z,-5.80
2018-02-14T06:36:37.475Z,-5.80
2018-02-14T06:39:04.929Z,-5.80
2018-02-14T06:41:32.386Z,-5.80
2018-02-14T06:43:59.850Z,-5.80
2018-02-14T06:46:27.301Z,-5.80
2018-02-14T06:48:54.753Z,-5.80
2018-02-14T06:51:23.199Z,-5.90
2018-02-14T06:53:51.426Z,-5.90
2018-02-14T06:56:18.881Z,-5.90
2018-02-14T06:58:46.340Z,-5.90
2018-02-14T07:01:13.791Z,-5.90
2018-02-14T07:03:42.015Z,-5.80
2018-02-14T07:06:10.239Z,-5.80
2018-02-14T07:08:37.711Z,-5.80
2018-02-14T07:11:05.166Z,-5.80
2018-02-14T07:13:32.639Z,-5.70
2018-02-14T07:16:00.098Z,-5.70
2018-02-14T07:18:27.558Z,-5.60
2018-02-14T07:20:55.020Z,-5.60
2018-02-14T07:23:28.104Z,-5.50
2018-02-14T07:25:55.566Z,-5.40
2018-02-14T07:28:23.787Z,-5.00
2018-02-14T07:30:51.247Z,-5.00
2018-02-14T07:33:18.702Z,-4.90
2018-02-14T07:35:46.166Z,-4.70
2018-02-14T07:38:13.618Z,-4.60
2018-02-14T07:40:41.093Z,-4.50
2018-02-14T07:43:08.547Z,-4.30
2018-02-14T07:45:36.007Z,-4.20
2018-02-14T07:48:03.464Z,-4.00
2018-02-14T07:50:30.931Z,-3.80
2018-02-14T07:52:58.388Z,-3.60
2018-02-14T07:55:25.843Z,-3.30
2018-02-14T07:57:53.298Z,-3.00
2018-02-14T08:00:20.771Z,-2.70
2018-02-14T08:02:48.995Z,-2.10
2018-02-14T08:05:16.470Z,-2.10
2018-02-14T08:07:43.927Z,-1.80
2018-02-14T08:10:11.402Z,-1.30
2018-02-14T08:12:38.854Z,-0.70
2018-02-14T08:15:06.318Z,-0.30
2018-02-14T08:17:33.780Z,0.10
2018-02-14T08:20:01.234Z,0.70
2018-02-14T08:22:28.679Z,0.90
2018-02-14T08:24:56.136Z,1.20
2018-02-14T08:27:23.580Z,1.40
2018-02-14T08:29:51.043Z,1.80
2018-02-14T08:32:18.504Z,2.00
2018-02-14T08:34:45.961Z,2.10
2018-02-14T08:37:13.411Z,1.80
2018-02-14T08:39:40.870Z,1.90
2018-02-14T08:42:08.331Z,2.00
2018-02-14T08:44:35.788Z,2.20
2018-02-14T08:47:03.239Z,2.00
2018-02-14T08:49:30.694Z,2.10
2018-02-14T08:51:58.156Z,2.40
2018-02-14T08:54:25.599Z,2.40
2018-02-14T08:56:53.042Z,2.50
2018-02-14T08:59:20.510Z,2.60
2018-02-14T09:01:47.970Z,2.80
2018-02-14T09:04:15.418Z,2.80
2018-02-14T09:06:42.867Z,2.90
2018-02-14T09:09:10.314Z,3.00
2018-02-14T09:11:37.763Z,3.10
2018-02-14T09:14:05.223Z,3.00
2018-02-14T09:16:32.675Z,2.90
2018-02-14T09:19:00.130Z,2.80
2018-02-14T09:21:27.587Z,2.60
2018-02-14T09:23:55.049Z,2.40
2018-02-14T09:26:22.498Z,1.80
2018-02-14T09:28:49.953Z,1.70
2018-02-14T09:31:17.437Z,1.40
2018-02-14T09:33:44.871Z,1.40
2018-02-14T09:36:12.328Z,1.30
2018-02-14T09:38:39.778Z,1.40
2018-02-14T09:41:07.242Z,1.50
2018-02-14T09:43:34.690Z,1.60
2018-02-14T09:46:02.147Z,1.90
2018-02-14T09:48:29.617Z,2.10
2018-02-14T09:50:57.078Z,2.40
2018-02-14T09:53:24.522Z,2.80
2018-02-14T09:55:51.971Z,2.90
2018-02-14T09:58:19.432Z,2.90
2018-02-14T10:00:46.886Z,3.30
2018-02-14T10:03:14.337Z,3.80
2018-02-14T10:05:41.798Z,4.40
2018-02-14T10:08:09.255Z,4.70
2018-02-14T10:10:36.700Z,5.30
2018-02-14T10:13:04.149Z,5.60
2018-02-14T10:15:31.593Z,5.60
2018-02-14T10:17:59.811Z,6.70
2018-02-14T10:20:27.255Z,6.70
2018-02-14T10:22:54.708Z,6.90
2018-02-14T10:25:22.166Z,6.80
2018-02-14T10:27:49.623Z,6.70
2018-02-14T10:30:17.834Z,7.30
2018-02-14T10:32:45.283Z,7.30
2018-02-14T10:35:12.731Z,8.00
2018-02-14T10:37:40.181Z,8.20
2018-02-14T10:40:07.623Z,8.80
2018-02-14T10:42:35.074Z,9.60
2018-02-14T10:45:02.537Z,10.40
2018-02-14T10:47:29.991Z,10.80
2018-02-14T10:49:57.446Z,10.90
2018-02-14T10:52:24.905Z,10.80
2018-02-14T10:54:52.364Z,10.90
2018-02-14T10:57:19.819Z,10.20
2018-02-14T10:59:47.277Z,10.10
2018-02-14T11:02:14.731Z,9.70
2018-02-14T11:04:47.854Z,10.30
2018-02-14T11:07:18.237Z,10.50
2018-02-14T11:09:45.679Z,10.80
2018-02-14T11:12:13.160Z,10.60
2018-02-14T11:14:40.622Z,9.90
2018-02-14T11:17:08.069Z,10.50
2018-02-14T11:19:35.536Z,10.70
2018-02-14T11:22:02.992Z,10.60
2018-02-14T11:24:30.451Z,10.80
2018-02-14T11:26:57.902Z,10.50
2018-02-14T11:29:25.367Z,10.90
2018-02-14T11:31:52.816Z,10.90
2018-02-14T11:34:20.274Z,10.70
2018-02-14T11:36:47.719Z,10.20
2018-02-14T11:39:15.169Z,10.50
2018-02-14T11:41:42.626Z,9.80
2018-02-14T11:44:10.087Z,10.00
2018-02-14T11:46:37.544Z,10.70
2018-02-14T11:49:05.004Z,11.00
2018-02-14T11:51:33.215Z,11.00
2018-02-14T11:54:00.675Z,11.00
2018-02-14T11:56:28.194Z,11.50
2018-02-14T11:58:55.647Z,10.50
2018-02-14T12:01:23.096Z,9.60
2018-02-14T12:03:50.550Z,9.20
2018-02-14T12:06:18.047Z,9.60
2018-02-14T12:08:45.463Z,9.70
2018-02-14T12:11:12.918Z,10.30
2018-02-14T12:13:40.374Z,10.00
2018-02-14T12:16:07.831Z,9.90
2018-02-14T12:18:35.294Z,10.40
2018-02-14T12:21:02.747Z,10.90
2018-02-14T12:23:30.198Z,10.70
2018-02-14T12:25:58.417Z,10.00
2018-02-14T12:28:25.867Z,10.00
2018-02-14T12:30:53.319Z,9.90
2018-02-14T12:33:20.766Z,9.50
2018-02-14T12:35:48.230Z,9.50
2018-02-14T12:38:15.688Z,9.50
2018-02-14T12:40:43.147Z,9.30
2018-02-14T12:43:10.600Z,9.00
2018-02-14T12:45:38.059Z,8.60
2018-02-14T12:48:05.515Z,8.60
2018-02-14T12:50:32.971Z,8.80
2018-02-14T12:53:00.418Z,8.80
2018-02-14T12:55:27.871Z,8.90
2018-02-14T12:57:55.316Z,9.30
2018-02-14T13:00:22.772Z,9.30
2018-02-14T13:02:50.211Z,9.30
2018-02-14T13:05:18.425Z,9.40
2018-02-14T13:07:45.878Z,9.40
2018-02-14T13:10:13.334Z,9.30
2018-02-14T13:12:40.790Z,8.70
2018-02-14T13:15:08.243Z,8.60
2018-02-14T13:17:35.703Z,8.50
2018-02-14T13:20:03.158Z,8.40
2018-02-14T13:22:30.611Z,8.30
2018-02-14T13:24:58.071Z,8.50
2018-02-14T13:27:25.531Z,8.70
2018-02-14T13:29:52.978Z,8.50
2018-02-14T13:32:20.442Z,8.60
2018-02-14T13:34:48.727Z,8.60
2018-02-14T13:37:16.172Z,8.70
2018-02-14T13:39:43.617Z,9.10
2018-02-14T13:42:11.067Z,9.50
2018-02-14T13:44:38.514Z,9.40
2018-02-14T13:47:05.974Z,9.50
2018-02-14T13:49:33.414Z,9.60
2018-02-14T13:52:00.876Z,10.50
2018-02-14T13:54:28.327Z,10.60
2018-02-14T13:56:55.783Z,10.60
2018-02-14T13:59:23.245Z,11.00
2018-02-14T14:01:50.695Z,11.30
2018-02-14T14:04:18.150Z,11.60
2018-02-14T14:06:45.606Z,10.50
2018-02-14T14:09:13.060Z,9.10
2018-02-14T14:11:40.515Z,9.00
2018-02-14T14:14:07.978Z,8.40
2018-02-14T14:16:35.427Z,8.10
2018-02-14T14:19:02.939Z,7.90
2018-02-14T14:21:30.347Z,7.60
2018-02-14T14:23:57.833Z,7.60
2018-02-14T14:26:25.291Z,7.50
2018-02-14T14:28:52.736Z,7.70
2018-02-14T14:31:20.194Z,7.60
2018-02-14T14:33:47.634Z,7.40
2018-02-14T14:36:15.099Z,7.00
2018-02-14T14:38:42.550Z,6.90
2018-02-14T14:41:10.021Z,6.70
2018-02-14T14:43:37.472Z,6.80
2018-02-14T14:46:04.923Z,6.90
2018-02-14T14:48:32.383Z,6.80
2018-02-14T14:50:59.837Z,6.80
2018-02-14T14:53:27.291Z,6.50
2018-02-14T14:55:54.744Z,6.50
2018-02-14T14:58:22.267Z,6.20
2018-02-14T15:00:50.470Z,6.10
2018-02-14T15:03:18.382Z,6.10
2018-02-14T15:05:46.598Z,6.00
2018-02-14T15:08:14.059Z,6.00
2018-02-14T15:10:42.267Z,5.80
2018-02-14T15:13:09.711Z,5.70
2018-02-14T15:15:37.162Z,5.80
2018-02-14T15:18:04.619Z,5.70
2018-02-14T15:20:32.054Z,5.50
2018-02-14T15:22:59.514Z,5.30
2018-02-14T15:25:26.956Z,5.20
2018-02-14T15:27:54.431Z,5.10
2018-02-14T15:30:21.886Z,5.00
2018-02-14T15:32:49.339Z,4.90
2018-02-14T15:35:16.779Z,4.80
2018-02-14T15:37:44.230Z,4.80
2018-02-14T15:40:11.703Z,4.80
2018-02-14T15:42:39.895Z,4.60
2018-02-14T15:45:07.335Z,4.60
2018-02-14T15:47:34.789Z,4.60
2018-02-14T15:50:02.230Z,4.50
2018-02-14T15:52:29.675Z,4.50
2018-02-14T15:54:57.882Z,4.30
2018-02-14T15:57:25.322Z,4.30
2018-02-14T15:59:52.774Z,4.20
2018-02-14T16:02:20.214Z,4.20
2018-02-14T16:04:48.448Z,4.00
2018-02-14T16:07:15.898Z,4.00
2018-02-14T16:09:43.371Z,4.10
2018-02-14T16:12:10.822Z,4.10
2018-02-14T16:14:38.286Z,4.00
2018-02-14T16:17:05.812Z,3.90
2018-02-14T16:19:33.258Z,3.90
2018-02-14T16:22:00.709Z,3.80
2018-02-14T16:24:28.177Z,3.80
2018-02-14T16:26:55.638Z,3.80
2018-02-14T16:29:23.095Z,3.70
2018-02-14T16:31:50.601Z,3.60
2018-02-14T16:34:18.928Z,3.40
2018-02-14T16:36:46.385Z,3.40
2018-02-14T16:39:14.222Z,3.40
2018-02-14T16:41:41.981Z,3.30
2018-02-14T16:44:09.531Z,3.20
2018-02-14T16:46:37.750Z,3.20
2018-02-14T16:49:05.208Z,3.10
2018-02-14T16:51:32.672Z,3.10
2018-02-14T16:54:00.352Z,3.00
2018-02-14T16:56:29.131Z,2.90
2018-02-14T16:58:57.105Z,2.90
2018-02-14T17:01:24.695Z,2.90
2018-02-14T17:03:52.911Z,2.70
2018-02-14T17:06:20.374Z,2.70
2018-02-14T17:08:47.824Z,2.70
2018-02-14T17:11:15.284Z,2.50
2018-02-14T17:13:42.735Z,2.40
2018-02-14T17:16:10.200Z,2.30
2018-02-14T17:18:37.650Z,2.10
2018-02-14T17:21:05.147Z,2.00
2018-02-14T17:23:33.501Z,1.60
2018-02-14T17:26:01.137Z,1.60
2018-02-14T17:28:28.595Z,1.40
2018-02-14T17:30:56.052Z,1.20
2018-02-14T17:33:23.511Z,1.10
2018-02-14T17:35:50.966Z,0.90
2018-02-14T17:38:18.418Z,0.80
2018-02-14T17:40:45.892Z,0.70
2018-02-14T17:43:13.343Z,0.60
2018-02-14T17:45:40.803Z,0.50
2018-02-14T17:48:08.265Z,0.40
2018-02-14T17:50:35.720Z,0.40
2018-02-14T17:53:03.180Z,0.30
2018-02-14T17:55:30.633Z,0.20
2018-02-14T17:57:58.078Z,0.20
2018-02-14T18:00:25.551Z,0.30
2018-02-14T18:02:53.003Z,0.30
2018-02-14T18:05:20.459Z,0.30
2018-02-14T18:07:47.919Z,0.40
2018-02-14T18:10:15.368Z,0.30
2018-02-14T18:12:42.823Z,0.10
2018-02-14T18:15:10.279Z,0.00
2018-02-14T18:17:37.742Z,0.00
2018-02-14T18:20:05.191Z,-0.10
2018-02-14T18:22:32.648Z,-0.10
2018-02-14T18:25:00.110Z,-0.10
2018-02-14T18:27:27.563Z,-0.10
2018-02-14T18:29:55.014Z,-0.10
2018-02-14T18:32:22.480Z,-0.20
2018-02-14T18:34:49.938Z,-0.30
2018-02-14T18:37:17.411Z,-0.40
2018-02-14T18:39:44.866Z,-0.50
2018-02-14T18:42:12.325Z,-0.60
2018-02-14T18:44:39.778Z,-0.70
2018-02-14T18:47:07.246Z,-0.70
2018-02-14T18:49:34.712Z,-0.70
2018-02-14T18:52:02.938Z,-0.70
2018-02-14T18:54:30.410Z,-0.50
2018-02-14T18:56:57.884Z,-0.70
2018-02-14T18:59:25.353Z,-0.80
2018-02-14T19:01:53.594Z,-0.80
2018-02-14T19:04:21.051Z,-0.60
2018-02-14T19:06:48.526Z,-0.80
2018-02-14T19:09:15.979Z,-0.80
2018-02-14T19:11:43.437Z,-0.80
2018-02-14T19:14:10.899Z,-0.80
2018-02-14T19:16:39.003Z,-0.80
2018-02-14T19:19:06.516Z,-0.90
2018-02-14T19:21:34.091Z,-1.00
2018-02-14T19:24:01.557Z,-1.10
2018-02-14T19:26:29.796Z,-1.30
2018-02-14T19:28:57.269Z,-1.20
2018-02-14T19:31:24.726Z,-1.30
2018-02-14T19:33:52.195Z,-1.30
2018-02-14T19:36:20.435Z,-1.40
2018-02-14T19:38:47.898Z,-1.10
2018-02-14T19:41:15.384Z,-1.40
2018-02-14T19:43:43.619Z,-1.00
2018-02-14T19:46:11.087Z,-1.00
2018-02-14T19:48:38.542Z,-1.00
2018-02-14T19:51:05.995Z,-1.10
2018-02-14T19:53:33.466Z,-1.10
2018-02-14T19:56:00.935Z,-1.20
2018-02-14T19:58:28.420Z,-1.30
2018-02-14T20:00:55.902Z,-1.30
2018-02-14T20:03:24.126Z,-1.50
2018-02-14T20:05:51.590Z,-1.40
2018-02-14T20:08:19.841Z,-1.60
2018-02-14T20:10:47.298Z,-1.70
2018-02-14T20:13:14.755Z,-1.70
2018-02-14T20:15:42.218Z,-1.60
2018-02-14T20:18:09.684Z,-1.70
2018-02-14T20:20:37.906Z,-1.80
2018-02-14T20:23:05.386Z,-1.80
2018-02-14T20:25:32.866Z,-1.90
2018-02-14T20:28:00.323Z,-1.90
2018-02-14T20:30:27.795Z,-1.70
2018-02-14T20:32:56.031Z,-1.60
2018-02-14T20:35:23.486Z,-1.60
2018-02-14T20:37:50.964Z,-1.40
2018-02-14T20:40:18.439Z,-1.40
2018-02-14T20:42:46.666Z,-1.70
2018-02-14T20:45:14.130Z,-1.70
2018-02-14T20:47:41.607Z,-1.80
2018-02-14T20:50:09.065Z,-2.00
2018-02-14T20:52:36.512Z,-2.00
2018-02-14T20:55:03.967Z,-2.10
2018-02-14T20:57:31.439Z,-2.00
2018-02-14T20:59:58.904Z,-2.00
2018-02-14T21:02:27.142Z,-1.70
2018-02-14T21:04:54.599Z,-1.80
2018-02-14T21:07:22.051Z,-1.70
2018-02-14T21:09:49.537Z,-1.80
2018-02-14T21:12:17.762Z,-1.90
2018-02-14T21:14:45.226Z,-1.90
2018-02-14T21:17:12.687Z,-2.00
2018-02-14T21:19:40.150Z,-2.10
2018-02-14T21:22:07.608Z,-2.10
2018-02-14T21:24:35.075Z,-1.90
2018-02-14T21:27:02.543Z,-1.70
2018-02-14T21:29:30.022Z,-1.40
2018-02-14T21:31:57.498Z,-1.40
2018-02-14T21:34:25.296Z,-1.50
2018-02-14T21:36:52.487Z,-1.70
2018-02-14T21:39:19.915Z,-1.80
2018-02-14T21:41:47.387Z,-1.80
2018-02-14T21:44:15.841Z,-2.00
2018-02-14T21:46:43.314Z,-2.00
2018-02-14T21:49:10.790Z,-2.10
2018-02-14T21:51:39.045Z,-2.30
2018-02-14T21:54:06.497Z,-2.30
2018-02-14T21:56:33.950Z,-2.40
2018-02-14T21:59:01.421Z,-2.40
2018-02-14T22:01:29.642Z,-2.50
2018-02-14T22:03:57.099Z,-2.50
2018-02-14T22:06:25.365Z,-2.40
2018-02-14T22:08:52.851Z,-2.50
2018-02-14T22:11:20.328Z,-2.50
2018-02-14T22:13:47.791Z,-2.50
2018-02-14T22:16:15.267Z,-2.50
2018-02-14T22:18:42.736Z,-2.40
2018-02-14T22:21:10.226Z,-2.50
2018-02-14T22:23:37.686Z,-2.50
2018-02-14T22:26:05.165Z,-2.60
2018-02-14T22:28:32.650Z,-2.60
2018-02-14T22:31:00.888Z,-2.90
2018-02-14T22:33:28.371Z,-2.90
2018-02-14T22:35:56.613Z,-2.90
2018-02-14T22:38:24.070Z,-3.00
2018-02-14T22:40:51.542Z,-3.00
2018-02-14T22:43:19.013Z,-2.90
2018-02-14T22:45:47.241Z,-2.90
2018-02-14T22:48:14.699Z,-2.90
2018-02-14T22:50:42.204Z,-2.80
2018-02-14T22:53:09.632Z,-2.50
2018-02-14T22:55:37.098Z,-2.20
2018-02-14T22:58:04.558Z,-2.20
2018-02-14T23:00:32.789Z,-1.80
2018-02-14T23:03:00.267Z,-1.80
2018-02-14T23:05:27.734Z,-1.50
2018-02-14T23:07:56.650Z,-1.30
2018-02-14T23:10:24.978Z,-1.20
2018-02-14T23:12:52.436Z,-1.20
2018-02-14T23:15:19.899Z,-1.20
2018-02-14T23:17:47.355Z,-1.10
2018-02-14T23:20:14.819Z,-1.00
2018-02-14T23:22:42.283Z,-0.90
2018-02-14T23:25:09.739Z,-0.80
2018-02-14T23:27:37.196Z,-0.80
2018-02-14T23:30:04.655Z,-0.70
2018-02-14T23:32:32.110Z,-0.70
2018-02-14T23:34:59.567Z,-0.70
2018-02-14T23:37:27.030Z,-0.70
2018-02-14T23:39:54.483Z,-0.70
2018-02-14T23:42:21.938Z,-0.70
2018-02-14T23:44:49.386Z,-0.60
2018-02-14T23:47:17.656Z,-0.60
2018-02-14T23:49:45.112Z,-0.60
2018-02-14T23:52:12.574Z,-0.50
2018-02-14T23:54:40.648Z,-0.60
2018-02-14T23:57:08.110Z,-0.50
2018-02-14T23:59:35.563Z,-0.50
